Thompsonville, Michigan
Current Conditions -  °F | °C
As of 9:52 PM on Saturday 25 Oct 2014 (Local Time) from KFKS Reporting Station
Clear Clear  
Wind Chill: 54°   Ceiling: Unl
Heat Index: 54°   Visibility: 10mi
Dew Point: 36°   Wind: 8mph
Humidity: 50%   Direction: 330°NNW
Pressure: 29.84"   Gusts: NA
Location:  44.52°N, 85.94°W
Report Text: KFKS 260152Z AUTO 33007KT 10SM CLR 12/02 A2984 RMK AO2 T01220021
Loading
Personal Weather Stations






























Interactive Weather Map
Tropical Storm Tracking
New forecast layout! Learn more

10-Day Weather Forecast

Advertisements
Track Severe Weather on mobile